Terminal Aerodrome Forecast
Issued by NWS

Home | Current Version | Previous Version | Text Only | Print | Product List | Glossary On
Versions: 1 2 3 4 5 6 7 8 9 10 11 12 13 14 15 16 17 18 19 20 21 22 23
000
FTAK31 PANC 281731
TAFATK
TAF
PATK 281731Z 2818/0118 VRB03KT P6SM VCSH OVC040
     FM282000 VRB03KT 3SM -SN OVC025
     FM010300 36006KT P6SM SCT100
     FM011200 VRB03KT 5SM BR SCT005=

USA.gov is the U.S. government's official web portal to all federal, state and local government web resources and services.